createdAt,value
2018-12-07T00:00:13.574Z,1.73
2018-12-07T00:02:17.214Z,1.63
2018-12-07T00:04:20.213Z,2.00
2018-12-07T00:06:23.474Z,1.73
2018-12-07T00:08:26.701Z,1.90
2018-12-07T00:10:30.031Z,2.37
2018-12-07T00:12:34.238Z,1.83
2018-12-07T00:14:37.321Z,2.00
2018-12-07T00:16:40.559Z,1.90
2018-12-07T00:18:43.919Z,2.20
2018-12-07T00:20:47.511Z,1.83
2018-12-07T00:22:51.055Z,1.97
2018-12-07T00:24:54.198Z,2.10
2018-12-07T00:26:57.346Z,1.80
2018-12-07T00:29:00.522Z,1.83
2018-12-07T00:31:04.542Z,1.73
2018-12-07T00:33:08.186Z,2.00
2018-12-07T00:35:11.371Z,1.73
2018-12-07T00:37:14.566Z,1.83
2018-12-07T00:39:17.829Z,2.00
2018-12-07T00:41:21.450Z,1.77
2018-12-07T00:43:24.635Z,1.90
2018-12-07T00:45:27.779Z,1.70
2018-12-07T00:47:30.921Z,1.90
2018-12-07T00:49:34.902Z,1.90
2018-12-07T00:51:39.217Z,1.70
2018-12-07T00:53:42.729Z,1.60
2018-12-07T00:55:45.888Z,1.50
2018-12-07T00:57:48.786Z,1.50
2018-12-07T00:59:51.936Z,1.43
2018-12-07T01:01:57.336Z,1.60
2018-12-07T01:04:00.575Z,1.60
2018-12-07T01:06:04.860Z,1.70
2018-12-07T01:08:08.428Z,1.80
2018-12-07T01:10:11.656Z,1.60
2018-12-07T01:12:14.962Z,1.70
2018-12-07T01:14:18.219Z,1.77
2018-12-07T01:16:21.363Z,1.60
2018-12-07T01:18:24.533Z,1.83
2018-12-07T01:20:27.677Z,1.57
2018-12-07T01:22:31.030Z,1.40
2018-12-07T01:24:35.081Z,1.63
2018-12-07T01:26:38.536Z,1.60
2018-12-07T01:28:41.723Z,1.60
2018-12-07T01:30:45.098Z,1.50
2018-12-07T01:32:48.522Z,1.40
2018-12-07T01:34:51.725Z,1.50
2018-12-07T01:36:54.654Z,1.30
2018-12-07T01:38:57.862Z,1.30
2018-12-07T01:41:01.013Z,1.50
2018-12-07T01:43:05.216Z,1.40
2018-12-07T01:45:08.297Z,1.40
2018-12-07T01:47:11.582Z,1.33
2018-12-07T01:49:14.960Z,1.20
2018-12-07T01:51:18.109Z,1.40
2018-12-07T01:53:21.563Z,1.20
2018-12-07T01:55:24.750Z,1.20
2018-12-07T01:57:27.944Z,1.40
2018-12-07T01:59:31.162Z,1.20
2018-12-07T02:01:34.599Z,1.10
2018-12-07T02:03:38.206Z,1.40
2018-12-07T02:05:41.381Z,1.40
2018-12-07T02:07:44.634Z,1.27
2018-12-07T02:09:47.780Z,1.20
2018-12-07T02:11:51.800Z,1.30
2018-12-07T02:13:55.442Z,1.40
2018-12-07T02:15:58.943Z,1.30
2018-12-07T02:18:02.344Z,1.43
2018-12-07T02:20:05.397Z,1.30
2018-12-07T02:22:08.580Z,1.20
2018-12-07T02:24:12.085Z,1.40
2018-12-07T02:26:15.278Z,1.50
2018-12-07T02:28:18.425Z,1.50
2018-12-07T02:30:22.370Z,1.00
2018-12-07T02:32:25.600Z,1.40
2018-12-07T02:34:29.519Z,1.23
2018-12-07T02:36:32.982Z,1.40
2018-12-07T02:38:37.739Z,1.30
2018-12-07T02:40:40.951Z,1.23
2018-12-07T02:42:44.201Z,1.40
2018-12-07T02:44:47.498Z,1.37
2018-12-07T02:46:51.286Z,1.40
2018-12-07T02:48:54.825Z,1.50
2018-12-07T02:50:58.231Z,1.57
2018-12-07T02:53:01.615Z,1.53
2018-12-07T02:55:06.264Z,1.60
2018-12-07T02:57:09.439Z,1.50
2018-12-07T02:59:12.602Z,1.83
2018-12-07T03:01:16.674Z,1.57
2018-12-07T03:03:19.823Z,1.47
2018-12-07T03:05:23.832Z,1.47
2018-12-07T03:07:27.318Z,1.57
2018-12-07T03:09:30.566Z,1.47
2018-12-07T03:11:34.664Z,1.70
2018-12-07T03:13:37.587Z,1.60
2018-12-07T03:15:40.808Z,1.63
2018-12-07T03:17:43.944Z,1.70
2018-12-07T03:19:47.420Z,1.80
2018-12-07T03:21:50.888Z,2.40
2018-12-07T03:23:54.470Z,2.30
2018-12-07T03:25:57.755Z,1.90
2018-12-07T03:28:00.975Z,2.13
2018-12-07T03:30:05.895Z,2.10
2018-12-07T03:32:09.519Z,2.10
2018-12-07T03:34:12.659Z,2.00
2018-12-07T03:36:15.830Z,2.10
2018-12-07T03:38:19.291Z,2.00
2018-12-07T03:40:23.069Z,2.97
2018-12-07T03:42:26.848Z,2.10
2018-12-07T03:44:30.092Z,2.33
2018-12-07T03:46:33.380Z,2.23
2018-12-07T03:48:36.593Z,2.50
2018-12-07T03:50:39.743Z,2.07
2018-12-07T03:52:43.169Z,2.10
2018-12-07T03:54:46.493Z,2.30
2018-12-07T03:56:50.051Z,2.70
2018-12-07T03:58:53.847Z,2.50
2018-12-07T04:00:57.386Z,2.37
2018-12-07T04:03:01.434Z,2.20
2018-12-07T04:05:04.888Z,2.37
2018-12-07T04:07:08.243Z,2.20
2018-12-07T04:09:11.504Z,2.73
2018-12-07T04:11:14.814Z,2.67
2018-12-07T04:13:18.259Z,2.30
2018-12-07T04:15:21.918Z,2.40
2018-12-07T04:17:25.387Z,2.70
2018-12-07T04:19:28.653Z,2.53
2018-12-07T04:21:31.876Z,2.67
2018-12-07T04:23:35.269Z,2.77
2018-12-07T04:25:38.490Z,2.90
2018-12-07T04:27:41.812Z,3.10
2018-12-07T04:29:44.720Z,2.70
2018-12-07T04:31:47.921Z,3.20
2018-12-07T04:33:51.596Z,2.90
2018-12-07T04:35:54.897Z,2.90
2018-12-07T04:37:58.116Z,2.63
2018-12-07T04:40:01.323Z,2.50
2018-12-07T04:42:04.620Z,3.23
2018-12-07T04:44:09.046Z,3.60
2018-12-07T04:46:12.423Z,2.70
2018-12-07T04:48:15.564Z,3.70
2018-12-07T04:50:18.787Z,2.50
2018-12-07T04:52:22.134Z,3.10
2018-12-07T04:54:25.768Z,2.83
2018-12-07T04:56:28.738Z,3.07
2018-12-07T04:58:32.097Z,2.77
2018-12-07T05:00:35.463Z,3.03
2018-12-07T05:02:38.676Z,2.70
2018-12-07T05:04:43.287Z,3.00
2018-12-07T05:06:46.469Z,3.07
2018-12-07T05:08:49.603Z,2.70
2018-12-07T05:10:53.151Z,2.50
2018-12-07T05:12:56.174Z,2.50
2018-12-07T05:15:00.970Z,2.50
2018-12-07T05:17:04.423Z,2.43
2018-12-07T05:19:07.752Z,2.30
2018-12-07T05:21:10.971Z,2.03
2018-12-07T05:23:14.208Z,2.40
2018-12-07T05:25:18.522Z,2.67
2018-12-07T05:27:22.042Z,2.57
2018-12-07T05:29:25.647Z,2.00
2018-12-07T05:31:28.996Z,2.00
2018-12-07T05:33:32.192Z,2.23
2018-12-07T05:35:35.579Z,2.03
2018-12-07T05:37:38.731Z,2.00
2018-12-07T05:39:41.882Z,2.27
2018-12-07T05:41:45.388Z,2.13
2018-12-07T05:43:57.338Z,1.63
2018-12-07T05:46:00.860Z,2.30
2018-12-07T05:48:04.122Z,2.60
2018-12-07T05:50:07.439Z,2.50
2018-12-07T05:52:10.333Z,2.93
2018-12-07T05:54:13.512Z,3.13
2018-12-07T05:56:16.716Z,3.03
2018-12-07T05:58:19.855Z,3.20
2018-12-07T06:00:23.771Z,3.37
2018-12-07T06:02:27.618Z,3.03
2018-12-07T06:04:30.814Z,3.70
2018-12-07T06:06:34.386Z,4.13
2018-12-07T06:08:37.525Z,3.60
2018-12-07T06:10:40.672Z,3.97
2018-12-07T06:12:43.843Z,4.03
2018-12-07T06:14:47.002Z,3.67
2018-12-07T06:16:50.419Z,3.30
2018-12-07T06:18:54.205Z,3.83
2018-12-07T06:20:57.266Z,3.70
2018-12-07T06:23:00.508Z,3.70
2018-12-07T06:25:04.830Z,3.95
2018-12-07T06:27:08.440Z,4.47
2018-12-07T06:29:11.651Z,3.70
2018-12-07T06:31:14.834Z,3.57
2018-12-07T06:33:17.977Z,3.57
2018-12-07T06:35:21.123Z,3.40
2018-12-07T06:37:24.983Z,3.77
2018-12-07T06:39:28.342Z,3.20
2018-12-07T06:41:31.557Z,2.77
2018-12-07T06:43:34.587Z,2.93
2018-12-07T06:45:37.751Z,2.87
2018-12-07T06:47:42.274Z,2.67
2018-12-07T06:49:45.438Z,2.67
2018-12-07T06:51:48.413Z,2.53
2018-12-07T06:53:51.558Z,2.67
2018-12-07T06:55:55.710Z,2.40
2018-12-07T06:57:59.283Z,2.20
2018-12-07T07:00:02.358Z,2.10
2018-12-07T07:02:06.343Z,2.70
2018-12-07T07:04:09.490Z,2.50
2018-12-07T07:06:12.739Z,2.70
2018-12-07T07:08:16.406Z,2.00
2018-12-07T07:10:19.554Z,2.80
2018-12-07T07:12:23.078Z,2.13
2018-12-07T07:14:27.339Z,2.37
2018-12-07T07:16:30.595Z,2.17
2018-12-07T07:18:33.991Z,2.77
2018-12-07T07:20:36.990Z,2.10
2018-12-07T07:22:40.134Z,2.47
2018-12-07T07:24:43.298Z,2.30
2018-12-07T07:26:46.790Z,2.53
2018-12-07T07:28:50.274Z,2.90
2018-12-07T07:30:54.968Z,2.63
2018-12-07T07:32:58.604Z,2.93
2018-12-07T07:35:02.026Z,2.43
2018-12-07T07:37:05.036Z,2.20
2018-12-07T07:39:08.346Z,3.47
2018-12-07T07:41:11.574Z,2.70
2018-12-07T07:43:14.482Z,2.67
2018-12-07T07:45:17.497Z,2.47
2018-12-07T07:47:20.676Z,3.07
2018-12-07T07:49:24.497Z,2.83
2018-12-07T07:51:27.831Z,2.60
2018-12-07T07:53:31.303Z,2.80
2018-12-07T07:55:34.500Z,2.93
2018-12-07T07:57:37.735Z,2.53
2018-12-07T07:59:40.694Z,2.17
2018-12-07T08:01:44.205Z,2.77
2018-12-07T08:03:47.597Z,2.43
2018-12-07T08:05:50.861Z,2.37
2018-12-07T08:07:55.676Z,2.50
2018-12-07T08:10:00.121Z,2.00
2018-12-07T08:12:03.483Z,2.50
2018-12-07T08:14:06.780Z,3.10
2018-12-07T08:16:10.047Z,2.80
2018-12-07T08:18:13.179Z,1.63
2018-12-07T08:20:16.691Z,2.40
2018-12-07T08:22:19.866Z,2.43
2018-12-07T08:24:23.119Z,2.60
2018-12-07T08:26:27.459Z,2.50
2018-12-07T08:28:30.855Z,2.33
2018-12-07T08:30:34.655Z,1.90
2018-12-07T08:32:38.007Z,2.63
2018-12-07T08:34:41.174Z,2.23
2018-12-07T08:36:44.374Z,1.70
2018-12-07T08:38:47.529Z,2.00
2018-12-07T08:40:50.488Z,1.90
2018-12-07T08:42:54.157Z,2.30
2018-12-07T08:44:57.789Z,2.03
2018-12-07T08:47:01.096Z,1.87
2018-12-07T08:49:04.543Z,1.60
2018-12-07T08:51:08.374Z,2.23
2018-12-07T08:53:11.669Z,1.50
2018-12-07T08:55:14.914Z,2.20
2018-12-07T08:57:17.927Z,1.60
2018-12-07T08:59:21.102Z,1.77
2018-12-07T09:01:24.871Z,1.80
2018-12-07T09:03:28.724Z,2.10
2018-12-07T09:05:32.014Z,1.70
2018-12-07T09:07:35.521Z,1.73
2018-12-07T09:09:38.744Z,1.50
2018-12-07T09:11:43.324Z,1.70
2018-12-07T09:13:46.638Z,1.80
2018-12-07T09:15:49.998Z,1.73
2018-12-07T09:17:53.183Z,1.80
2018-12-07T09:19:58.111Z,1.67
2018-12-07T09:22:01.282Z,1.90
2018-12-07T09:24:04.770Z,1.70
2018-12-07T09:26:08.010Z,1.80
2018-12-07T09:28:11.231Z,1.93
2018-12-07T09:30:14.399Z,1.63
2018-12-07T09:32:17.482Z,1.57
2018-12-07T09:34:20.723Z,1.70
2018-12-07T09:36:24.180Z,1.83
2018-12-07T09:38:28.003Z,1.67
2018-12-07T09:40:31.146Z,1.33
2018-12-07T09:42:34.702Z,1.53
2018-12-07T09:47:12.015Z,1.83
2018-12-07T09:49:15.195Z,1.60
2018-12-07T09:51:18.427Z,2.00
2018-12-07T09:53:21.899Z,1.80
2018-12-07T09:55:26.069Z,1.80
2018-12-07T09:57:29.104Z,1.20
2018-12-07T09:59:32.506Z,1.60
2018-12-07T10:01:36.178Z,1.80
2018-12-07T10:03:39.412Z,1.60
2018-12-07T10:05:42.546Z,1.93
2018-12-07T10:07:45.703Z,1.70
2018-12-07T10:09:48.605Z,1.60
2018-12-07T10:11:51.793Z,1.47
2018-12-07T10:13:56.283Z,1.53
2018-12-07T10:15:59.690Z,1.77
2018-12-07T10:18:03.018Z,1.63
2018-12-07T10:20:06.531Z,1.60
2018-12-07T10:22:09.667Z,1.40
2018-12-07T10:24:12.871Z,1.70
2018-12-07T10:26:15.866Z,1.30
2018-12-07T10:28:18.806Z,1.33
2018-12-07T10:30:21.975Z,1.50
2018-12-07T10:32:25.985Z,1.53
2018-12-07T10:34:30.147Z,1.30
2018-12-07T10:36:33.434Z,1.43
2018-12-07T10:38:36.814Z,1.40
2018-12-07T10:40:39.961Z,1.20
2018-12-07T10:42:43.102Z,1.37
2018-12-07T10:44:46.314Z,1.30
2018-12-07T10:46:49.471Z,1.20
2018-12-07T10:48:52.795Z,1.40
2018-12-07T10:50:57.667Z,1.27
2018-12-07T10:53:01.198Z,0.90
2018-12-07T10:55:05.364Z,1.20
2018-12-07T10:57:08.528Z,1.60
2018-12-07T10:59:11.763Z,1.40
2018-12-07T11:01:20.426Z,1.20
2018-12-07T11:03:29.173Z,1.23
2018-12-07T11:05:39.039Z,1.23
2018-12-07T11:07:47.551Z,1.20
2018-12-07T11:09:57.124Z,0.90
2018-12-07T11:12:06.071Z,1.10
2018-12-07T11:14:11.447Z,1.10
2018-12-07T11:16:23.168Z,1.00
2018-12-07T11:18:31.865Z,0.90
2018-12-07T11:20:40.410Z,1.00
2018-12-07T11:22:48.997Z,1.07
2018-12-07T11:24:57.626Z,1.10
2018-12-07T11:27:07.295Z,1.07
2018-12-07T11:29:16.624Z,1.20
2018-12-07T11:31:25.360Z,1.00
2018-12-07T11:33:40.070Z,1.20
2018-12-07T11:35:44.134Z,1.47
2018-12-07T11:37:47.238Z,0.80
2018-12-07T11:39:50.382Z,0.97
2018-12-07T11:41:53.553Z,1.37
2018-12-07T11:43:57.640Z,1.40
2018-12-07T11:46:01.077Z,1.00
2018-12-07T11:48:04.738Z,0.97
2018-12-07T11:50:09.333Z,1.10
2018-12-07T11:52:12.246Z,1.20
2018-12-07T11:54:15.407Z,1.10
2018-12-07T11:56:18.569Z,1.13
2018-12-07T11:58:21.562Z,0.90
2018-12-07T12:00:24.491Z,1.00
2018-12-07T12:02:28.735Z,1.10
2018-12-07T12:04:32.234Z,1.00
2018-12-07T12:06:35.372Z,1.00
2018-12-07T12:08:38.919Z,0.80
2018-12-07T12:10:42.155Z,1.00
2018-12-07T12:12:45.506Z,0.90
2018-12-07T12:14:48.649Z,1.10
2018-12-07T12:16:51.872Z,1.20
2018-12-07T12:18:57.255Z,1.00
2018-12-07T12:21:00.867Z,1.00
2018-12-07T12:23:04.316Z,1.10
2018-12-07T12:25:07.839Z,1.10
2018-12-07T12:27:11.015Z,0.93
2018-12-07T12:29:14.309Z,1.10
2018-12-07T12:31:17.243Z,1.00
2018-12-07T12:33:20.363Z,0.90
2018-12-07T12:35:23.510Z,0.90
2018-12-07T12:37:27.631Z,1.37
2018-12-07T12:39:31.203Z,1.00
2018-12-07T12:41:34.658Z,0.70
2018-12-07T12:43:38.047Z,1.00
2018-12-07T12:45:41.295Z,1.10
2018-12-07T12:47:44.542Z,1.10
2018-12-07T12:49:48.044Z,1.00
2018-12-07T12:51:51.317Z,0.90
2018-12-07T12:53:54.556Z,0.80
2018-12-07T12:55:59.174Z,0.70
2018-12-07T12:58:03.111Z,0.80
2018-12-07T13:00:07.790Z,0.90
2018-12-07T13:02:10.956Z,1.00
2018-12-07T13:04:14.286Z,0.50
2018-12-07T13:06:17.441Z,0.70
2018-12-07T13:08:20.995Z,0.87
2018-12-07T13:10:24.587Z,0.60
2018-12-07T13:12:29.368Z,0.70
2018-12-07T13:14:33.275Z,0.70
2018-12-07T13:16:36.909Z,0.97
2018-12-07T13:18:40.030Z,0.70
2018-12-07T13:20:43.292Z,0.90
2018-12-07T13:22:46.202Z,0.90
2018-12-07T13:24:49.110Z,0.90
2018-12-07T13:26:52.358Z,1.10
2018-12-07T13:28:55.511Z,0.83
2018-12-07T13:31:00.026Z,0.80
2018-12-07T13:33:03.517Z,0.80
2018-12-07T13:35:06.928Z,0.97
2018-12-07T13:37:10.074Z,0.90
2018-12-07T13:39:13.234Z,0.67
2018-12-07T13:41:16.623Z,0.90
2018-12-07T13:43:19.535Z,0.90
2018-12-07T13:45:22.764Z,0.80
2018-12-07T13:47:26.169Z,0.90
2018-12-07T13:49:30.276Z,0.87
2018-12-07T13:51:34.129Z,0.90
2018-12-07T13:53:38.180Z,0.80
2018-12-07T13:55:41.958Z,0.90
2018-12-07T13:57:45.808Z,1.07
2018-12-07T13:59:49.345Z,1.13
2018-12-07T14:01:53.830Z,0.90
2018-12-07T14:03:57.991Z,0.80
2018-12-07T14:06:01.644Z,0.70
2018-12-07T14:08:05.393Z,0.77
2018-12-07T14:10:09.002Z,0.90
2018-12-07T14:12:12.654Z,0.90
2018-12-07T14:14:15.866Z,0.80
2018-12-07T14:16:19.643Z,0.63
2018-12-07T14:18:22.835Z,0.60
2018-12-07T14:20:26.025Z,0.63
2018-12-07T14:22:30.125Z,0.90
2018-12-07T14:24:33.867Z,0.80
2018-12-07T14:26:37.285Z,1.00
2018-12-07T14:28:40.670Z,1.17
2018-12-07T14:30:44.222Z,0.60
2018-12-07T14:32:47.710Z,1.03
2018-12-07T14:34:50.923Z,0.80
2018-12-07T14:36:54.390Z,0.77
2018-12-07T14:38:58.773Z,0.80
2018-12-07T14:41:02.395Z,0.60
2018-12-07T14:43:06.139Z,0.90
2018-12-07T14:45:09.937Z,0.60
2018-12-07T14:47:13.682Z,0.90
2018-12-07T14:49:17.022Z,1.30
2018-12-07T14:51:20.081Z,0.73
2018-12-07T14:53:23.490Z,0.70
2018-12-07T14:55:26.452Z,0.70
2018-12-07T14:57:31.280Z,1.03
2018-12-07T14:59:34.837Z,1.20
2018-12-07T15:01:38.464Z,0.93
2018-12-07T15:03:41.757Z,1.00
2018-12-07T15:05:45.041Z,1.80
2018-12-07T15:07:48.491Z,1.57
2018-12-07T15:09:51.701Z,1.37
2018-12-07T15:11:54.744Z,1.10
2018-12-07T15:13:59.599Z,1.33
2018-12-07T15:16:03.159Z,0.80
2018-12-07T15:18:07.019Z,0.70
2018-12-07T15:20:10.240Z,0.70
2018-12-07T15:22:13.552Z,0.90
2018-12-07T15:24:16.777Z,0.90
2018-12-07T15:26:19.971Z,0.70
2018-12-07T15:28:23.525Z,1.00
2018-12-07T15:30:26.878Z,1.57
2018-12-07T15:32:31.783Z,0.90
2018-12-07T15:34:35.518Z,0.90
2018-12-07T15:36:39.006Z,1.00
2018-12-07T15:38:42.369Z,1.10
2018-12-07T15:40:45.959Z,1.00
2018-12-07T15:42:49.454Z,0.80
2018-12-07T15:44:52.828Z,0.83
2018-12-07T15:46:56.282Z,0.90
2018-12-07T15:49:00.496Z,1.00
2018-12-07T15:51:04.027Z,1.50
2018-12-07T15:53:07.302Z,1.00
2018-12-07T15:55:10.995Z,0.87
2018-12-07T15:57:14.309Z,1.10
2018-12-07T15:59:17.732Z,0.80
2018-12-07T16:01:21.038Z,0.70
2018-12-07T16:03:24.531Z,0.80
2018-12-07T16:05:27.742Z,1.30
2018-12-07T16:07:31.803Z,1.03
2018-12-07T16:09:35.250Z,0.90
2018-12-07T16:11:38.570Z,1.10
2018-12-07T16:13:41.792Z,0.70
2018-12-07T16:15:45.363Z,0.80
2018-12-07T16:17:49.330Z,1.00
2018-12-07T16:19:52.743Z,0.63
2018-12-07T16:21:55.962Z,0.90
2018-12-07T16:23:59.783Z,0.80
2018-12-07T16:26:03.669Z,0.80
2018-12-07T16:28:06.793Z,0.80
2018-12-07T16:30:11.038Z,0.80
2018-12-07T16:32:14.526Z,0.90
2018-12-07T16:34:17.885Z,0.70
2018-12-07T16:36:21.505Z,1.07
2018-12-07T16:38:24.987Z,0.90
2018-12-07T16:40:32.329Z,0.93
2018-12-07T16:42:35.666Z,1.10
2018-12-07T16:44:39.250Z,1.23
2018-12-07T16:46:42.841Z,0.90
2018-12-07T16:48:46.199Z,1.00
2018-12-07T16:50:49.566Z,0.97
2018-12-07T16:52:52.826Z,1.10
2018-12-07T16:54:56.149Z,1.33
2018-12-07T16:56:59.906Z,1.00
2018-12-07T16:59:03.754Z,1.00
2018-12-07T17:01:07.405Z,0.90
2018-12-07T17:03:10.880Z,1.03
2018-12-07T17:05:13.957Z,1.17
2018-12-07T17:07:17.401Z,1.20
2018-12-07T17:09:21.388Z,0.90
2018-12-07T17:11:24.669Z,0.90
2018-12-07T17:13:27.883Z,1.10
2018-12-07T17:15:32.370Z,0.70
2018-12-07T17:17:37.230Z,1.00
2018-12-07T17:19:40.631Z,1.07
2018-12-07T17:21:43.838Z,1.07
2018-12-07T17:23:48.642Z,0.80
2018-12-07T17:25:52.102Z,1.00
2018-12-07T17:27:55.563Z,1.20
2018-12-07T17:29:59.480Z,0.90
2018-12-07T17:32:03.721Z,0.70
2018-12-07T17:34:06.966Z,0.90
2018-12-07T17:36:10.432Z,0.80
2018-12-07T17:38:13.866Z,1.20
2018-12-07T17:40:17.171Z,1.00
2018-12-07T17:42:29.269Z,0.90
2018-12-07T17:44:26.468Z,0.80
2018-12-07T17:46:30.508Z,0.80
2018-12-07T17:48:42.440Z,0.87
2018-12-07T17:50:46.229Z,0.90
2018-12-07T17:52:49.611Z,1.50
2018-12-07T17:54:52.816Z,1.10
2018-12-07T17:56:55.775Z,1.17
2018-12-07T17:58:59.842Z,0.93
2018-12-07T18:01:03.650Z,1.50
2018-12-07T18:03:07.265Z,0.90
2018-12-07T18:05:10.746Z,1.00
2018-12-07T18:07:13.783Z,1.37
2018-12-07T18:09:17.613Z,1.50
2018-12-07T18:11:20.849Z,1.10
2018-12-07T18:13:24.085Z,1.07
2018-12-07T18:15:27.302Z,1.40
2018-12-07T18:17:31.637Z,1.00
2018-12-07T18:19:34.910Z,0.70
2018-12-07T18:22:09.579Z,1.10
2018-12-07T18:24:13.000Z,1.10
2018-12-07T18:26:16.295Z,1.07
2018-12-07T18:28:19.745Z,1.00
2018-12-07T18:30:23.353Z,0.73
2018-12-07T18:32:26.546Z,0.97
2018-12-07T18:34:30.362Z,0.97
2018-12-07T18:36:34.147Z,1.10
2018-12-07T18:38:37.785Z,1.30
2018-12-07T18:40:41.584Z,0.90
2018-12-07T18:42:45.061Z,1.00
2018-12-07T18:44:48.419Z,0.90
2018-12-07T18:46:51.736Z,3.63
2018-12-07T18:48:55.029Z,4.77
2018-12-07T18:50:58.902Z,1.10
2018-12-07T18:53:02.858Z,1.03
2018-12-07T18:55:08.489Z,0.53
2018-12-07T18:57:12.269Z,0.70
2018-12-07T18:59:15.517Z,0.80
2018-12-07T19:01:19.183Z,0.80
2018-12-07T19:03:24.600Z,0.80
2018-12-07T19:05:27.838Z,1.13
2018-12-07T19:07:31.921Z,0.90
2018-12-07T19:09:35.687Z,0.77
2018-12-07T19:11:40.652Z,0.90
2018-12-07T19:13:44.094Z,0.73
2018-12-07T19:15:47.095Z,0.90
2018-12-07T19:17:50.530Z,0.83
2018-12-07T19:19:53.785Z,0.50
2018-12-07T19:21:57.158Z,0.60
2018-12-07T19:24:01.451Z,0.57
2018-12-07T19:26:05.301Z,0.57
2018-12-07T19:28:08.869Z,0.60
2018-12-07T19:30:14.705Z,0.57
2018-12-07T19:32:17.831Z,0.60
2018-12-07T19:34:20.870Z,0.73
2018-12-07T19:36:24.115Z,0.80
2018-12-07T19:38:27.381Z,0.63
2018-12-07T19:40:31.721Z,0.50
2018-12-07T19:42:35.948Z,0.90
2018-12-07T19:44:39.054Z,0.50
2018-12-07T19:46:42.537Z,0.63
2018-12-07T19:48:46.048Z,1.03
2018-12-07T19:50:49.651Z,0.90
2018-12-07T19:52:53.137Z,0.93
2018-12-07T19:54:56.458Z,0.87
2018-12-07T19:57:00.154Z,0.70
2018-12-07T19:59:03.686Z,0.63
2018-12-07T20:01:07.483Z,0.60
2018-12-07T20:03:11.494Z,0.80
2018-12-07T20:05:14.961Z,0.80
2018-12-07T20:07:18.665Z,0.60
2018-12-07T20:09:22.745Z,1.00
2018-12-07T20:11:25.832Z,0.80
2018-12-07T20:13:28.971Z,0.87
2018-12-07T20:15:33.126Z,1.00
2018-12-07T20:17:36.391Z,1.10
2018-12-07T20:19:39.651Z,0.70
2018-12-07T20:21:43.207Z,0.83
2018-12-07T20:23:47.182Z,0.73
2018-12-07T20:25:50.635Z,0.90
2018-12-07T20:27:54.179Z,0.93
2018-12-07T20:29:57.294Z,1.10
2018-12-07T20:32:01.541Z,1.03
2018-12-07T20:34:06.494Z,0.83
2018-12-07T20:36:10.033Z,1.07
2018-12-07T20:38:13.367Z,1.00
2018-12-07T20:40:16.935Z,1.10
2018-12-07T20:42:20.417Z,1.20
2018-12-07T20:44:24.129Z,1.37
2018-12-07T20:46:27.830Z,1.20
2018-12-07T20:48:31.600Z,1.03
2018-12-07T20:50:35.038Z,1.20
2018-12-07T20:52:39.115Z,1.53
2018-12-07T20:54:42.762Z,1.17
2018-12-07T20:56:46.561Z,0.90
2018-12-07T20:58:49.795Z,1.17
2018-12-07T21:00:59.284Z,1.33
2018-12-07T21:02:57.842Z,0.97
2018-12-07T21:05:16.425Z,1.20
2018-12-07T21:08:04.514Z,0.90
2018-12-07T21:10:48.185Z,0.97
2018-12-07T21:13:09.691Z,1.57
2018-12-07T21:15:13.033Z,1.30
2018-12-07T21:17:29.796Z,1.20
2018-12-07T21:19:34.746Z,1.07
2018-12-07T21:21:38.425Z,0.90
2018-12-07T21:23:42.266Z,1.10
2018-12-07T21:25:45.697Z,1.10
2018-12-07T21:27:48.857Z,1.20
2018-12-07T21:30:05.232Z,1.10
2018-12-07T21:32:13.482Z,1.23
2018-12-07T21:35:36.357Z,1.10
2018-12-07T21:37:39.571Z,1.30
2018-12-07T21:39:48.058Z,1.17
2018-12-07T21:41:51.459Z,1.23
2018-12-07T21:43:55.735Z,1.50
2018-12-07T21:45:59.100Z,1.30
2018-12-07T21:48:21.346Z,1.43
2018-12-07T21:50:24.319Z,1.77
2018-12-07T21:52:32.773Z,1.30
2018-12-07T21:54:36.416Z,1.40
2018-12-07T21:56:40.782Z,1.23
2018-12-07T21:58:44.270Z,1.70
2018-12-07T22:00:47.798Z,1.53
2018-12-07T22:02:51.416Z,1.80
2018-12-07T22:04:54.590Z,1.57
2018-12-07T22:06:57.938Z,1.53
2018-12-07T22:09:03.128Z,1.20
2018-12-07T22:11:06.905Z,1.47
2018-12-07T22:13:10.088Z,1.70
2018-12-07T22:15:15.547Z,1.30
2018-12-07T22:17:19.453Z,1.73
2018-12-07T22:19:22.806Z,1.43
2018-12-07T22:21:26.396Z,1.33
2018-12-07T22:23:29.725Z,1.53
2018-12-07T22:25:33.173Z,1.90
2018-12-07T22:27:36.766Z,1.40
2018-12-07T22:29:40.548Z,1.00
2018-12-07T22:31:44.495Z,1.60
2018-12-07T22:33:48.314Z,1.90
2018-12-07T22:35:51.439Z,1.63
2018-12-07T22:37:54.928Z,2.00
2018-12-07T22:39:58.435Z,2.20
2018-12-07T22:42:01.785Z,1.70
2018-12-07T22:44:05.399Z,1.40
2018-12-07T22:46:08.419Z,2.00
2018-12-07T22:48:11.684Z,2.60
2018-12-07T22:50:17.324Z,2.20
2018-12-07T22:52:20.599Z,2.27
2018-12-07T22:54:23.749Z,2.03
2018-12-07T22:56:27.004Z,2.50
2018-12-07T22:58:30.288Z,2.20
2018-12-07T23:00:34.579Z,2.57
2018-12-07T23:02:37.649Z,1.77
2018-12-07T23:04:40.913Z,1.50
2018-12-07T23:06:44.156Z,1.70
2018-12-07T23:08:47.334Z,1.97
2018-12-07T23:10:50.947Z,1.80
2018-12-07T23:12:54.621Z,1.57
2018-12-07T23:14:57.818Z,1.67
2018-12-07T23:17:00.979Z,1.80
2018-12-07T23:19:04.574Z,1.87
2018-12-07T23:21:07.939Z,2.00
2018-12-07T23:23:11.034Z,1.87
2018-12-07T23:25:14.311Z,1.80
2018-12-07T23:27:17.466Z,1.57
2018-12-07T23:29:22.735Z,1.47
2018-12-07T23:31:26.008Z,1.70
2018-12-07T23:33:29.402Z,1.63
2018-12-07T23:35:32.764Z,2.00
2018-12-07T23:37:35.896Z,1.93
2018-12-07T23:39:39.587Z,1.80
2018-12-07T23:41:43.002Z,1.87
2018-12-07T23:43:45.968Z,1.90
2018-12-07T23:45:49.139Z,1.70
2018-12-07T23:47:52.366Z,1.63
2018-12-07T23:49:55.710Z,2.10
2018-12-07T23:51:58.915Z,2.23
2018-12-07T23:54:02.280Z,1.30
2018-12-07T23:56:06.063Z,1.90
2018-12-07T23:58:09.026Z,1.33
